Terminal Aerodrome Forecast
Issued by NWS Twin Cities, MN

Home | Current Version | Previous Version | Graphics & Text | Print | Product List | Glossary On
Versions: 1 2 3 4 5 6 7 8 9 10 11 12 13 14 15 16 17 18 19 20
000
FTUS43 KMPX 011200 AAA
TAFEAU
TAF AMD
KEAU 011255Z 0113/0212 18006KT P6SM -SHRA VCTS BKN008CB OVC019
      TEMPO 0113/0114 3SM SHRA BKN012
     FM011430 26006KT P6SM BKN015 BKN050
     FM011530 28008KT P6SM BKN025
     FM011700 29011KT P6SM SCT020 BKN050
     FM020000 27006KT P6SM SCT200
     FM020500 25003KT P6SM BKN100=

USA.gov is the U.S. government's official web portal to all federal, state and local government web resources and services.